sensor_id;sensor_type;location;lat;lon;timestamp;temperature;humidity
14351;DHT22;59223;54.276;10.194;2022-07-23T00:00:27;16.70;99.90
14351;DHT22;59223;54.276;10.194;2022-07-23T00:02:59;16.60;99.90
14351;DHT22;59223;54.276;10.194;2022-07-23T00:05:28;16.30;99.90
14351;DHT22;59223;54.276;10.194;2022-07-23T00:07:58;16.50;99.90
14351;DHT22;59223;54.276;10.194;2022-07-23T00:10:27;16.30;99.90
14351;DHT22;59223;54.276;10.194;2022-07-23T00:12:54;16.30;99.90
14351;DHT22;59223;54.276;10.194;2022-07-23T00:15:21;16.30;99.90
14351;DHT22;59223;54.276;10.194;2022-07-23T00:17:48;16.50;99.90
14351;DHT22;59223;54.276;10.194;2022-07-23T00:20:15;16.50;99.90
14351;DHT22;59223;54.276;10.194;2022-07-23T00:22:49;16.20;99.90
14351;DHT22;59223;54.276;10.194;2022-07-23T00:25:20;16.20;99.90
14351;DHT22;59223;54.276;10.194;2022-07-23T00:27:57;16.20;99.90
14351;DHT22;59223;54.276;10.194;2022-07-23T00:30:25;16.00;99.90
14351;DHT22;59223;54.276;10.194;2022-07-23T00:32:54;16.10;99.90
14351;DHT22;59223;54.276;10.194;2022-07-23T00:35:27;16.10;99.90
14351;DHT22;59223;54.276;10.194;2022-07-23T00:37:58;16.10;99.90
14351;DHT22;59223;54.276;10.194;2022-07-23T00:40:26;16.10;99.90
14351;DHT22;59223;54.276;10.194;2022-07-23T00:42:54;16.30;99.90
14351;DHT22;59223;54.276;10.194;2022-07-23T00:45:21;16.00;99.90
14351;DHT22;59223;54.276;10.194;2022-07-23T00:47:48;16.00;99.90
14351;DHT22;59223;54.276;10.194;2022-07-23T00:50:16;15.90;99.90
14351;DHT22;59223;54.276;10.194;2022-07-23T00:52:43;16.00;99.90
14351;DHT22;59223;54.276;10.194;2022-07-23T00:55:11;15.90;99.90
14351;DHT22;59223;54.276;10.194;2022-07-23T00:57:39;15.90;99.90
14351;DHT22;59223;54.276;10.194;2022-07-23T01:00:09;16.00;99.90
14351;DHT22;59223;54.276;10.194;2022-07-23T01:02:37;16.10;99.90
14351;DHT22;59223;54.276;10.194;2022-07-23T01:05:07;16.20;99.90
14351;DHT22;59223;54.276;10.194;2022-07-23T01:07:34;16.20;99.90
14351;DHT22;59223;54.276;10.194;2022-07-23T01:10:08;16.20;99.90
14351;DHT22;59223;54.276;10.194;2022-07-23T01:12:56;16.30;99.90
14351;DHT22;59223;54.276;10.194;2022-07-23T01:15:23;16.40;99.90
14351;DHT22;59223;54.276;10.194;2022-07-23T01:17:50;16.20;99.90
14351;DHT22;59223;54.276;10.194;2022-07-23T01:20:18;16.00;99.90
14351;DHT22;59223;54.276;10.194;2022-07-23T01:22:47;15.90;99.90
14351;DHT22;59223;54.276;10.194;2022-07-23T01:25:16;15.90;99.90
14351;DHT22;59223;54.276;10.194;2022-07-23T01:27:43;15.90;99.90
14351;DHT22;59223;54.276;10.194;2022-07-23T01:30:15;16.10;99.90
14351;DHT22;59223;54.276;10.194;2022-07-23T01:32:42;16.00;99.90
14351;DHT22;59223;54.276;10.194;2022-07-23T01:35:09;16.10;99.90
14351;DHT22;59223;54.276;10.194;2022-07-23T01:37:37;16.20;99.90
14351;DHT22;59223;54.276;10.194;2022-07-23T01:40:06;16.20;99.90
14351;DHT22;59223;54.276;10.194;2022-07-23T01:42:34;15.80;99.90
14351;DHT22;59223;54.276;10.194;2022-07-23T01:45:04;15.90;99.90
14351;DHT22;59223;54.276;10.194;2022-07-23T01:47:35;15.70;99.90
14351;DHT22;59223;54.276;10.194;2022-07-23T01:50:02;15.90;99.90
14351;DHT22;59223;54.276;10.194;2022-07-23T01:52:29;15.80;99.90
14351;DHT22;59223;54.276;10.194;2022-07-23T01:54:56;15.60;99.90
14351;DHT22;59223;54.276;10.194;2022-07-23T01:57:23;15.80;99.90
14351;DHT22;59223;54.276;10.194;2022-07-23T01:59:52;15.70;99.90
14351;DHT22;59223;54.276;10.194;2022-07-23T02:02:19;15.80;99.90
14351;DHT22;59223;54.276;10.194;2022-07-23T02:04:46;15.80;99.90
14351;DHT22;59223;54.276;10.194;2022-07-23T02:07:16;15.90;99.90
14351;DHT22;59223;54.276;10.194;2022-07-23T02:09:42;15.90;99.90
14351;DHT22;59223;54.276;10.194;2022-07-23T02:12:09;15.70;99.90
14351;DHT22;59223;54.276;10.194;2022-07-23T02:14:36;15.50;99.90
14351;DHT22;59223;54.276;10.194;2022-07-23T02:17:08;15.50;99.90
14351;DHT22;59223;54.276;10.194;2022-07-23T02:19:37;15.70;99.90
14351;DHT22;59223;54.276;10.194;2022-07-23T02:22:04;15.50;99.90
14351;DHT22;59223;54.276;10.194;2022-07-23T02:24:33;15.50;99.90
14351;DHT22;59223;54.276;10.194;2022-07-23T02:27:00;15.40;99.90
14351;DHT22;59223;54.276;10.194;2022-07-23T02:29:27;15.80;99.90
14351;DHT22;59223;54.276;10.194;2022-07-23T02:31:54;15.90;99.90
14351;DHT22;59223;54.276;10.194;2022-07-23T02:34:23;15.90;99.90
14351;DHT22;59223;54.276;10.194;2022-07-23T02:36:51;15.80;99.90
14351;DHT22;59223;54.276;10.194;2022-07-23T02:39:20;15.60;99.90
14351;DHT22;59223;54.276;10.194;2022-07-23T02:41:46;15.70;99.90
14351;DHT22;59223;54.276;10.194;2022-07-23T02:44:13;15.70;99.90
14351;DHT22;59223;54.276;10.194;2022-07-23T02:46:40;15.70;99.90
14351;DHT22;59223;54.276;10.194;2022-07-23T02:49:07;15.50;99.90
14351;DHT22;59223;54.276;10.194;2022-07-23T02:51:34;15.70;99.90
14351;DHT22;59223;54.276;10.194;2022-07-23T02:54:01;15.70;99.90
14351;DHT22;59223;54.276;10.194;2022-07-23T02:56:28;15.70;99.90
14351;DHT22;59223;54.276;10.194;2022-07-23T02:58:54;15.80;99.90
14351;DHT22;59223;54.276;10.194;2022-07-23T03:01:21;15.90;99.90
14351;DHT22;59223;54.276;10.194;2022-07-23T03:03:48;16.10;99.90
14351;DHT22;59223;54.276;10.194;2022-07-23T03:06:18;16.30;99.90
14351;DHT22;59223;54.276;10.194;2022-07-23T03:08:45;16.10;99.90
14351;DHT22;59223;54.276;10.194;2022-07-23T03:11:11;16.20;99.90
14351;DHT22;59223;54.276;10.194;2022-07-23T03:13:39;16.20;99.90
14351;DHT22;59223;54.276;10.194;2022-07-23T03:16:07;16.10;99.90
14351;DHT22;59223;54.276;10.194;2022-07-23T03:18:34;16.00;99.90
14351;DHT22;59223;54.276;10.194;2022-07-23T03:21:06;15.90;99.90
14351;DHT22;59223;54.276;10.194;2022-07-23T03:23:33;15.70;99.90
14351;DHT22;59223;54.276;10.194;2022-07-23T03:26:01;15.80;99.90
14351;DHT22;59223;54.276;10.194;2022-07-23T03:28:28;15.80;99.90
14351;DHT22;59223;54.276;10.194;2022-07-23T03:30:54;15.80;99.90
14351;DHT22;59223;54.276;10.194;2022-07-23T03:33:22;15.60;99.90
14351;DHT22;59223;54.276;10.194;2022-07-23T03:35:51;15.70;99.90
14351;DHT22;59223;54.276;10.194;2022-07-23T03:38:18;15.80;99.90
14351;DHT22;59223;54.276;10.194;2022-07-23T03:40:45;15.50;99.90
14351;DHT22;59223;54.276;10.194;2022-07-23T03:43:12;15.50;99.90
14351;DHT22;59223;54.276;10.194;2022-07-23T03:45:39;15.40;99.90
14351;DHT22;59223;54.276;10.194;2022-07-23T03:48:06;15.40;99.90
14351;DHT22;59223;54.276;10.194;2022-07-23T03:50:32;15.30;99.90
14351;DHT22;59223;54.276;10.194;2022-07-23T03:53:01;15.30;99.90
14351;DHT22;59223;54.276;10.194;2022-07-23T03:55:28;15.60;99.90
14351;DHT22;59223;54.276;10.194;2022-07-23T03:57:56;15.80;99.90
14351;DHT22;59223;54.276;10.194;2022-07-23T04:00:25;16.00;99.90
14351;DHT22;59223;54.276;10.194;2022-07-23T04:02:52;16.20;99.90
14351;DHT22;59223;54.276;10.194;2022-07-23T04:05:21;16.20;99.90
14351;DHT22;59223;54.276;10.194;2022-07-23T04:07:48;16.00;99.90
14351;DHT22;59223;54.276;10.194;2022-07-23T04:10:15;16.10;99.90
14351;DHT22;59223;54.276;10.194;2022-07-23T04:12:44;15.80;99.90
14351;DHT22;59223;54.276;10.194;2022-07-23T04:15:11;16.30;99.90
14351;DHT22;59223;54.276;10.194;2022-07-23T04:17:41;16.10;99.90
14351;DHT22;59223;54.276;10.194;2022-07-23T04:20:08;16.10;99.90
14351;DHT22;59223;54.276;10.194;2022-07-23T04:22:36;16.50;99.90
14351;DHT22;59223;54.276;10.194;2022-07-23T04:25:05;16.80;99.90
14351;DHT22;59223;54.276;10.194;2022-07-23T04:27:35;16.60;99.90
14351;DHT22;59223;54.276;10.194;2022-07-23T04:30:05;16.70;99.90
14351;DHT22;59223;54.276;10.194;2022-07-23T04:32:32;16.70;99.90
14351;DHT22;59223;54.276;10.194;2022-07-23T04:35:03;16.60;99.90
14351;DHT22;59223;54.276;10.194;2022-07-23T04:37:30;16.50;99.90
14351;DHT22;59223;54.276;10.194;2022-07-23T04:39:57;16.70;99.90
14351;DHT22;59223;54.276;10.194;2022-07-23T04:42:25;16.70;99.90
14351;DHT22;59223;54.276;10.194;2022-07-23T04:44:54;16.70;99.90
14351;DHT22;59223;54.276;10.194;2022-07-23T04:47:26;16.70;99.90
14351;DHT22;59223;54.276;10.194;2022-07-23T04:49:54;16.70;99.90
14351;DHT22;59223;54.276;10.194;2022-07-23T04:52:21;16.50;99.90
14351;DHT22;59223;54.276;10.194;2022-07-23T04:54:48;16.50;99.90
14351;DHT22;59223;54.276;10.194;2022-07-23T04:57:14;16.60;99.90
14351;DHT22;59223;54.276;10.194;2022-07-23T04:59:44;16.50;99.90
14351;DHT22;59223;54.276;10.194;2022-07-23T05:02:13;16.30;99.90
14351;DHT22;59223;54.276;10.194;2022-07-23T05:04:40;16.50;99.90
14351;DHT22;59223;54.276;10.194;2022-07-23T05:07:07;16.60;99.90
14351;DHT22;59223;54.276;10.194;2022-07-23T05:09:34;16.70;99.90
14351;DHT22;59223;54.276;10.194;2022-07-23T05:12:03;16.90;99.90
14351;DHT22;59223;54.276;10.194;2022-07-23T05:14:30;17.00;99.90
14351;DHT22;59223;54.276;10.194;2022-07-23T05:16:57;16.80;99.90
14351;DHT22;59223;54.276;10.194;2022-07-23T05:19:26;16.90;99.90
14351;DHT22;59223;54.276;10.194;2022-07-23T05:21:53;17.10;99.90
14351;DHT22;59223;54.276;10.194;2022-07-23T05:24:20;17.00;99.90
14351;DHT22;59223;54.276;10.194;2022-07-23T05:26:46;17.00;99.90
14351;DHT22;59223;54.276;10.194;2022-07-23T05:29:13;17.20;99.90
14351;DHT22;59223;54.276;10.194;2022-07-23T05:31:40;16.80;99.90
14351;DHT22;59223;54.276;10.194;2022-07-23T05:34:10;16.70;99.90
14351;DHT22;59223;54.276;10.194;2022-07-23T05:36:43;16.50;99.90
14351;DHT22;59223;54.276;10.194;2022-07-23T05:39:10;16.60;99.90
14351;DHT22;59223;54.276;10.194;2022-07-23T05:41:37;16.70;99.90
14351;DHT22;59223;54.276;10.194;2022-07-23T05:44:04;16.50;99.90
14351;DHT22;59223;54.276;10.194;2022-07-23T05:46:33;16.50;99.90
14351;DHT22;59223;54.276;10.194;2022-07-23T05:49:00;16.50;99.90
14351;DHT22;59223;54.276;10.194;2022-07-23T05:51:29;16.60;99.90
14351;DHT22;59223;54.276;10.194;2022-07-23T05:53:56;16.30;99.90
14351;DHT22;59223;54.276;10.194;2022-07-23T05:56:28;16.30;99.90
14351;DHT22;59223;54.276;10.194;2022-07-23T05:58:55;16.10;99.90
14351;DHT22;59223;54.276;10.194;2022-07-23T06:01:22;16.10;99.90
14351;DHT22;59223;54.276;10.194;2022-07-23T06:03:49;16.30;99.90
14351;DHT22;59223;54.276;10.194;2022-07-23T06:06:16;16.20;99.90
14351;DHT22;59223;54.276;10.194;2022-07-23T06:08:43;16.00;99.90
14351;DHT22;59223;54.276;10.194;2022-07-23T06:11:10;16.10;99.90
14351;DHT22;59223;54.276;10.194;2022-07-23T06:13:39;16.10;99.90
14351;DHT22;59223;54.276;10.194;2022-07-23T06:16:09;16.30;99.90
14351;DHT22;59223;54.276;10.194;2022-07-23T06:18:36;16.40;99.90
14351;DHT22;59223;54.276;10.194;2022-07-23T06:21:03;16.40;99.90
14351;DHT22;59223;54.276;10.194;2022-07-23T06:23:50;16.40;99.90
14351;DHT22;59223;54.276;10.194;2022-07-23T06:26:17;16.60;99.90
14351;DHT22;59223;54.276;10.194;2022-07-23T06:28:44;16.70;99.90
14351;DHT22;59223;54.276;10.194;2022-07-23T06:31:11;17.00;99.90
14351;DHT22;59223;54.276;10.194;2022-07-23T06:33:37;17.10;99.90
14351;DHT22;59223;54.276;10.194;2022-07-23T06:36:05;16.70;99.90
14351;DHT22;59223;54.276;10.194;2022-07-23T06:38:32;16.90;99.90
14351;DHT22;59223;54.276;10.194;2022-07-23T06:41:00;16.80;99.90
14351;DHT22;59223;54.276;10.194;2022-07-23T06:43:26;16.80;99.90
14351;DHT22;59223;54.276;10.194;2022-07-23T06:45:53;16.40;99.90
14351;DHT22;59223;54.276;10.194;2022-07-23T06:48:20;16.30;99.90
14351;DHT22;59223;54.276;10.194;2022-07-23T06:50:47;16.30;99.90
14351;DHT22;59223;54.276;10.194;2022-07-23T06:53:14;16.30;99.90
14351;DHT22;59223;54.276;10.194;2022-07-23T06:55:41;16.50;99.90
14351;DHT22;59223;54.276;10.194;2022-07-23T06:58:08;16.60;99.90
14351;DHT22;59223;54.276;10.194;2022-07-23T07:00:36;16.50;99.90
14351;DHT22;59223;54.276;10.194;2022-07-23T07:03:06;16.50;99.90
14351;DHT22;59223;54.276;10.194;2022-07-23T07:05:32;16.30;99.90
14351;DHT22;59223;54.276;10.194;2022-07-23T07:08:02;16.40;99.90
14351;DHT22;59223;54.276;10.194;2022-07-23T07:10:28;16.40;99.90
14351;DHT22;59223;54.276;10.194;2022-07-23T07:12:55;16.30;99.90
14351;DHT22;59223;54.276;10.194;2022-07-23T07:15:22;16.40;99.90
14351;DHT22;59223;54.276;10.194;2022-07-23T07:17:49;16.70;99.90
14351;DHT22;59223;54.276;10.194;2022-07-23T07:20:19;16.50;99.90
14351;DHT22;59223;54.276;10.194;2022-07-23T07:22:45;16.60;99.90
14351;DHT22;59223;54.276;10.194;2022-07-23T07:25:14;16.60;99.90
14351;DHT22;59223;54.276;10.194;2022-07-23T07:27:41;16.20;99.90
14351;DHT22;59223;54.276;10.194;2022-07-23T07:30:11;16.40;99.90
14351;DHT22;59223;54.276;10.194;2022-07-23T07:32:38;16.30;99.90
14351;DHT22;59223;54.276;10.194;2022-07-23T07:35:22;16.60;99.90
14351;DHT22;59223;54.276;10.194;2022-07-23T07:37:49;16.70;99.90
14351;DHT22;59223;54.276;10.194;2022-07-23T07:40:16;16.80;99.90
14351;DHT22;59223;54.276;10.194;2022-07-23T07:42:50;16.40;99.90
14351;DHT22;59223;54.276;10.194;2022-07-23T07:45:20;16.40;99.90
14351;DHT22;59223;54.276;10.194;2022-07-23T07:47:50;16.50;99.90
14351;DHT22;59223;54.276;10.194;2022-07-23T07:50:21;16.70;99.90
14351;DHT22;59223;54.276;10.194;2022-07-23T07:52:49;16.70;99.90
14351;DHT22;59223;54.276;10.194;2022-07-23T07:55:20;16.70;99.90
14351;DHT22;59223;54.276;10.194;2022-07-23T07:57:47;16.80;99.90
14351;DHT22;59223;54.276;10.194;2022-07-23T08:00:16;17.10;99.90
14351;DHT22;59223;54.276;10.194;2022-07-23T08:02:45;17.00;99.90
14351;DHT22;59223;54.276;10.194;2022-07-23T08:05:13;16.80;99.90
14351;DHT22;59223;54.276;10.194;2022-07-23T08:07:40;17.00;99.90
14351;DHT22;59223;54.276;10.194;2022-07-23T08:10:08;16.90;99.90
14351;DHT22;59223;54.276;10.194;2022-07-23T08:12:43;16.90;99.90
14351;DHT22;59223;54.276;10.194;2022-07-23T08:15:15;16.90;99.90
14351;DHT22;59223;54.276;10.194;2022-07-23T08:17:45;17.10;99.90
14351;DHT22;59223;54.276;10.194;2022-07-23T08:20:18;17.40;99.90
14351;DHT22;59223;54.276;10.194;2022-07-23T08:22:48;17.50;99.90
14351;DHT22;59223;54.276;10.194;2022-07-23T08:25:26;17.60;99.90
14351;DHT22;59223;54.276;10.194;2022-07-23T08:27:53;18.00;99.90
14351;DHT22;59223;54.276;10.194;2022-07-23T08:30:22;18.10;99.90
14351;DHT22;59223;54.276;10.194;2022-07-23T08:35:16;18.20;99.90
14351;DHT22;59223;54.276;10.194;2022-07-23T08:37:46;18.60;99.90
14351;DHT22;59223;54.276;10.194;2022-07-23T08:40:15;18.90;99.90
14351;DHT22;59223;54.276;10.194;2022-07-23T08:42:42;19.20;99.90
14351;DHT22;59223;54.276;10.194;2022-07-23T08:45:09;19.80;99.90
14351;DHT22;59223;54.276;10.194;2022-07-23T08:47:38;19.40;99.90
14351;DHT22;59223;54.276;10.194;2022-07-23T08:50:07;19.20;99.90
14351;DHT22;59223;54.276;10.194;2022-07-23T08:52:36;19.20;99.90
14351;DHT22;59223;54.276;10.194;2022-07-23T08:55:04;19.20;99.90
14351;DHT22;59223;54.276;10.194;2022-07-23T08:57:31;19.20;99.90
14351;DHT22;59223;54.276;10.194;2022-07-23T08:59:58;19.20;99.90
14351;DHT22;59223;54.276;10.194;2022-07-23T09:02:25;19.00;99.90
14351;DHT22;59223;54.276;10.194;2022-07-23T09:04:52;18.70;99.90
14351;DHT22;59223;54.276;10.194;2022-07-23T09:07:21;19.00;99.90
14351;DHT22;59223;54.276;10.194;2022-07-23T09:10:07;19.40;99.90
14351;DHT22;59223;54.276;10.194;2022-07-23T09:12:37;19.90;99.90
14351;DHT22;59223;54.276;10.194;2022-07-23T09:15:08;20.20;99.90
14351;DHT22;59223;54.276;10.194;2022-07-23T09:17:41;20.20;99.90
14351;DHT22;59223;54.276;10.194;2022-07-23T09:20:16;20.20;99.90
14351;DHT22;59223;54.276;10.194;2022-07-23T09:22:47;20.00;99.90
14351;DHT22;59223;54.276;10.194;2022-07-23T09:25:17;19.60;99.90
14351;DHT22;59223;54.276;10.194;2022-07-23T09:27:51;19.30;99.90
14351;DHT22;59223;54.276;10.194;2022-07-23T09:30:25;18.80;99.90
14351;DHT22;59223;54.276;10.194;2022-07-23T09:33:13;18.90;99.90
14351;DHT22;59223;54.276;10.194;2022-07-23T09:35:50;19.30;99.90
14351;DHT22;59223;54.276;10.194;2022-07-23T09:38:19;20.20;99.90
14351;DHT22;59223;54.276;10.194;2022-07-23T09:40:47;20.50;99.90
14351;DHT22;59223;54.276;10.194;2022-07-23T09:43:34;20.80;99.90
14351;DHT22;59223;54.276;10.194;2022-07-23T09:46:24;20.50;99.90
14351;DHT22;59223;54.276;10.194;2022-07-23T09:48:55;20.00;99.90
14351;DHT22;59223;54.276;10.194;2022-07-23T09:51:24;20.40;99.90
14351;DHT22;59223;54.276;10.194;2022-07-23T09:54:02;20.00;99.90
14351;DHT22;59223;54.276;10.194;2022-07-23T09:56:31;19.90;99.90
14351;DHT22;59223;54.276;10.194;2022-07-23T09:59:02;19.70;99.90
14351;DHT22;59223;54.276;10.194;2022-07-23T10:01:46;19.40;99.90
14351;DHT22;59223;54.276;10.194;2022-07-23T10:04:16;19.40;99.90
14351;DHT22;59223;54.276;10.194;2022-07-23T10:06:43;19.50;99.90
14351;DHT22;59223;54.276;10.194;2022-07-23T10:09:12;19.50;99.90
14351;DHT22;59223;54.276;10.194;2022-07-23T10:11:43;19.30;99.90
14351;DHT22;59223;54.276;10.194;2022-07-23T10:14:10;19.50;99.90
14351;DHT22;59223;54.276;10.194;2022-07-23T10:16:37;19.70;99.90
14351;DHT22;59223;54.276;10.194;2022-07-23T10:19:05;19.90;99.90
14351;DHT22;59223;54.276;10.194;2022-07-23T10:21:54;20.40;99.90
14351;DHT22;59223;54.276;10.194;2022-07-23T10:24:47;20.70;99.90
14351;DHT22;59223;54.276;10.194;2022-07-23T10:30:18;20.60;99.90
14351;DHT22;59223;54.276;10.194;2022-07-23T10:35:56;20.40;99.90
14351;DHT22;59223;54.276;10.194;2022-07-23T10:38:31;20.10;99.90
14351;DHT22;59223;54.276;10.194;2022-07-23T10:41:01;20.00;99.90
14351;DHT22;59223;54.276;10.194;2022-07-23T10:43:29;19.90;99.90
14351;DHT22;59223;54.276;10.194;2022-07-23T10:46:28;20.10;99.90
14351;DHT22;59223;54.276;10.194;2022-07-23T10:49:23;20.30;99.90
14351;DHT22;59223;54.276;10.194;2022-07-23T10:54:54;20.50;99.90
14351;DHT22;59223;54.276;10.194;2022-07-23T10:57:28;20.20;99.90
14351;DHT22;59223;54.276;10.194;2022-07-23T11:02:34;19.90;99.90
14351;DHT22;59223;54.276;10.194;2022-07-23T11:05:08;19.40;99.90
14351;DHT22;59223;54.276;10.194;2022-07-23T11:10:42;18.90;99.90
14351;DHT22;59223;54.276;10.194;2022-07-23T11:18:59;19.30;99.90
14351;DHT22;59223;54.276;10.194;2022-07-23T11:31:53;20.70;99.90
14351;DHT22;59223;54.276;10.194;2022-07-23T11:37:11;21.00;99.90
14351;DHT22;59223;54.276;10.194;2022-07-23T11:39:40;20.60;99.90
14351;DHT22;59223;54.276;10.194;2022-07-23T11:42:07;20.60;99.90
14351;DHT22;59223;54.276;10.194;2022-07-23T11:44:39;20.80;99.90
14351;DHT22;59223;54.276;10.194;2022-07-23T11:47:09;20.80;99.90
14351;DHT22;59223;54.276;10.194;2022-07-23T11:49:39;20.80;99.30
14351;DHT22;59223;54.276;10.194;2022-07-23T11:52:10;20.80;99.40
14351;DHT22;59223;54.276;10.194;2022-07-23T11:54:57;21.00;99.90
14351;DHT22;59223;54.276;10.194;2022-07-23T11:57:29;20.80;99.90
14351;DHT22;59223;54.276;10.194;2022-07-23T12:00:00;21.00;99.90
14351;DHT22;59223;54.276;10.194;2022-07-23T12:02:27;21.40;99.80
14351;DHT22;59223;54.276;10.194;2022-07-23T12:04:54;21.10;99.20
14351;DHT22;59223;54.276;10.194;2022-07-23T12:09:58;20.00;99.90
14351;DHT22;59223;54.276;10.194;2022-07-23T12:12:26;20.30;99.90
14351;DHT22;59223;54.276;10.194;2022-07-23T12:14:58;20.00;99.90
14351;DHT22;59223;54.276;10.194;2022-07-23T12:17:30;19.50;99.90
14351;DHT22;59223;54.276;10.194;2022-07-23T12:19:58;19.50;99.90
14351;DHT22;59223;54.276;10.194;2022-07-23T12:22:26;19.30;99.90
14351;DHT22;59223;54.276;10.194;2022-07-23T12:25:03;19.40;99.90
14351;DHT22;59223;54.276;10.194;2022-07-23T12:27:31;19.90;99.90
14351;DHT22;59223;54.276;10.194;2022-07-23T12:29:58;20.80;99.90
14351;DHT22;59223;54.276;10.194;2022-07-23T12:32:27;21.60;99.90
14351;DHT22;59223;54.276;10.194;2022-07-23T12:35:04;22.00;99.00
14351;DHT22;59223;54.276;10.194;2022-07-23T12:37:35;21.70;98.50
14351;DHT22;59223;54.276;10.194;2022-07-23T12:41:11;21.30;99.60
14351;DHT22;59223;54.276;10.194;2022-07-23T12:48:31;19.90;99.90
14351;DHT22;59223;54.276;10.194;2022-07-23T12:51:12;20.00;99.90
14351;DHT22;59223;54.276;10.194;2022-07-23T12:54:06;19.90;99.90
14351;DHT22;59223;54.276;10.194;2022-07-23T12:56:38;19.70;99.90
14351;DHT22;59223;54.276;10.194;2022-07-23T12:59:15;19.60;99.90
14351;DHT22;59223;54.276;10.194;2022-07-23T13:01:56;19.40;99.90
14351;DHT22;59223;54.276;10.194;2022-07-23T13:04:26;19.30;99.90
14351;DHT22;59223;54.276;10.194;2022-07-23T13:06:58;19.30;99.90
14351;DHT22;59223;54.276;10.194;2022-07-23T13:09:32;19.10;99.90
14351;DHT22;59223;54.276;10.194;2022-07-23T13:12:21;19.30;99.90
14351;DHT22;59223;54.276;10.194;2022-07-23T13:14:50;19.50;99.90
14351;DHT22;59223;54.276;10.194;2022-07-23T13:17:17;20.30;99.90
14351;DHT22;59223;54.276;10.194;2022-07-23T13:19:46;21.00;99.90
14351;DHT22;59223;54.276;10.194;2022-07-23T13:22:13;21.60;99.70
14351;DHT22;59223;54.276;10.194;2022-07-23T13:24:42;21.40;99.90
14351;DHT22;59223;54.276;10.194;2022-07-23T13:27:09;21.50;99.40
14351;DHT22;59223;54.276;10.194;2022-07-23T13:29:38;21.40;99.90
14351;DHT22;59223;54.276;10.194;2022-07-23T13:32:08;21.30;99.90
14351;DHT22;59223;54.276;10.194;2022-07-23T13:34:39;21.30;99.30
14351;DHT22;59223;54.276;10.194;2022-07-23T13:37:26;20.70;99.50
14351;DHT22;59223;54.276;10.194;2022-07-23T13:39:53;20.30;99.50
14351;DHT22;59223;54.276;10.194;2022-07-23T13:42:20;20.10;99.70
14351;DHT22;59223;54.276;10.194;2022-07-23T13:44:49;20.10;99.90
14351;DHT22;59223;54.276;10.194;2022-07-23T13:47:19;20.50;99.50
14351;DHT22;59223;54.276;10.194;2022-07-23T13:49:46;20.40;99.70
14351;DHT22;59223;54.276;10.194;2022-07-23T13:52:14;20.00;99.90
14351;DHT22;59223;54.276;10.194;2022-07-23T13:54:43;19.80;99.90
14351;DHT22;59223;54.276;10.194;2022-07-23T13:57:10;19.50;99.90
14351;DHT22;59223;54.276;10.194;2022-07-23T13:59:38;19.20;99.90
14351;DHT22;59223;54.276;10.194;2022-07-23T14:02:05;18.80;99.90
14351;DHT22;59223;54.276;10.194;2022-07-23T14:04:49;18.70;99.90
14351;DHT22;59223;54.276;10.194;2022-07-23T14:07:21;18.80;99.90
14351;DHT22;59223;54.276;10.194;2022-07-23T14:09:48;19.10;99.90
14351;DHT22;59223;54.276;10.194;2022-07-23T14:12:15;19.60;99.90
14351;DHT22;59223;54.276;10.194;2022-07-23T14:14:45;20.40;99.90
14351;DHT22;59223;54.276;10.194;2022-07-23T14:17:13;21.00;99.90
14351;DHT22;59223;54.276;10.194;2022-07-23T14:19:41;21.00;99.30
14351;DHT22;59223;54.276;10.194;2022-07-23T14:22:08;20.40;99.40
14351;DHT22;59223;54.276;10.194;2022-07-23T14:24:35;20.00;99.90
14351;DHT22;59223;54.276;10.194;2022-07-23T14:27:03;20.00;99.90
14351;DHT22;59223;54.276;10.194;2022-07-23T14:29:31;20.20;99.80
14351;DHT22;59223;54.276;10.194;2022-07-23T14:32:05;20.50;99.40
14351;DHT22;59223;54.276;10.194;2022-07-23T14:34:35;20.50;99.70
14351;DHT22;59223;54.276;10.194;2022-07-23T14:37:04;20.30;99.40
14351;DHT22;59223;54.276;10.194;2022-07-23T14:39:31;19.70;99.90
14351;DHT22;59223;54.276;10.194;2022-07-23T14:41:58;19.80;99.90
14351;DHT22;59223;54.276;10.194;2022-07-23T14:44:25;20.10;99.90
14351;DHT22;59223;54.276;10.194;2022-07-23T14:46:52;20.40;99.90
14351;DHT22;59223;54.276;10.194;2022-07-23T14:49:19;20.20;99.50
14351;DHT22;59223;54.276;10.194;2022-07-23T14:51:46;19.90;99.90
14351;DHT22;59223;54.276;10.194;2022-07-23T14:54:15;20.10;99.90
14351;DHT22;59223;54.276;10.194;2022-07-23T14:56:42;20.00;99.90
14351;DHT22;59223;54.276;10.194;2022-07-23T14:59:10;20.20;99.80
14351;DHT22;59223;54.276;10.194;2022-07-23T15:01:37;20.20;99.90
14351;DHT22;59223;54.276;10.194;2022-07-23T15:04:05;20.10;99.70
14351;DHT22;59223;54.276;10.194;2022-07-23T15:06:52;20.00;99.90
14351;DHT22;59223;54.276;10.194;2022-07-23T15:09:22;20.30;99.90
14351;DHT22;59223;54.276;10.194;2022-07-23T15:11:51;20.30;99.90
14351;DHT22;59223;54.276;10.194;2022-07-23T15:14:18;20.20;99.90
14351;DHT22;59223;54.276;10.194;2022-07-23T15:17:05;20.50;99.20
14351;DHT22;59223;54.276;10.194;2022-07-23T15:19:32;20.30;99.70
14351;DHT22;59223;54.276;10.194;2022-07-23T15:21:58;20.60;98.90
14351;DHT22;59223;54.276;10.194;2022-07-23T15:24:28;20.80;98.90
14351;DHT22;59223;54.276;10.194;2022-07-23T15:26:57;20.50;98.60
14351;DHT22;59223;54.276;10.194;2022-07-23T15:29:24;20.50;99.00
14351;DHT22;59223;54.276;10.194;2022-07-23T15:31:53;20.70;99.20
14351;DHT22;59223;54.276;10.194;2022-07-23T15:34:25;20.50;99.70
14351;DHT22;59223;54.276;10.194;2022-07-23T15:36:55;20.30;99.50
14351;DHT22;59223;54.276;10.194;2022-07-23T15:39:22;20.30;99.40
14351;DHT22;59223;54.276;10.194;2022-07-23T15:41:49;20.50;99.30
14351;DHT22;59223;54.276;10.194;2022-07-23T15:44:16;20.50;99.40
14351;DHT22;59223;54.276;10.194;2022-07-23T15:46:56;20.70;99.10
14351;DHT22;59223;54.276;10.194;2022-07-23T15:49:27;20.60;98.90
14351;DHT22;59223;54.276;10.194;2022-07-23T15:51:56;20.40;99.00
14351;DHT22;59223;54.276;10.194;2022-07-23T15:54:24;20.50;98.90
14351;DHT22;59223;54.276;10.194;2022-07-23T15:56:52;20.00;98.80
14351;DHT22;59223;54.276;10.194;2022-07-23T15:59:19;19.80;99.10
14351;DHT22;59223;54.276;10.194;2022-07-23T16:01:46;19.90;99.00
14351;DHT22;59223;54.276;10.194;2022-07-23T16:04:13;20.10;98.60
14351;DHT22;59223;54.276;10.194;2022-07-23T16:06:45;20.20;98.60
14351;DHT22;59223;54.276;10.194;2022-07-23T16:09:11;20.30;98.40
14351;DHT22;59223;54.276;10.194;2022-07-23T16:11:45;20.60;97.60
14351;DHT22;59223;54.276;10.194;2022-07-23T16:14:12;20.70;96.20